Time;durP1;ratioP1;P1;durP2;ratioP2;P2;SDS_P1;SDS_P2;PMS_P1;PMS_P2;Temp;Humidity;BMP_temperature;BMP_pressure;BME280_temperature;BME280_humidity;BME280_pressure;Samples;Min_cycle;Max_cycle;Signal;HPM_P1;HPM_P2
2023/09/05 00:02:19;;;;;;;54.08;8.15;;;;;;;;;;5072533;28;20051;-40
2023/09/05 00:04:47;;;;;;;49.40;7.30;;;;;;;;;;5054504;28;20078;-47
2023/09/05 00:07:16;;;;;;;36.97;6.18;;;;;;;;;;5072464;28;20819;-43
2023/09/05 00:09:43;;;;;;;35.75;6.63;;;;;;;;;;5072258;28;20115;-44
2023/09/05 00:12:10;;;;;;;42.55;7.88;;;;;;;;;;5072335;28;20028;-43
2023/09/05 00:14:38;;;;;;;40.50;7.45;;;;;;;;;;5072261;28;20554;-43
2023/09/05 00:17:05;;;;;;;41.95;7.55;;;;;;;;;;5072129;28;20142;-43
2023/09/05 00:19:32;;;;;;;43.67;7.93;;;;;;;;;;5054139;28;20028;-44
2023/09/05 00:21:59;;;;;;;42.97;6.70;;;;;;;;;;5072077;28;20031;-43
2023/09/05 00:24:33;;;;;;;43.13;7.88;;;;;;;;;;5072130;28;20060;-44
2023/09/05 00:27:04;;;;;;;38.80;7.13;;;;;;;;;;5071964;28;20108;-42
2023/09/05 00:29:31;;;;;;;42.10;6.90;;;;;;;;;;5071799;28;20035;-43
2023/09/05 00:31:59;;;;;;;59.35;8.25;;;;;;;;;;5053872;28;20444;-40
2023/09/05 00:34:36;;;;;;;79.80;8.82;;;;;;;;;;5071107;28;20458;-42
2023/09/05 00:37:04;;;;;;;74.57;8.40;;;;;;;;;;5070170;28;20092;-39
2023/09/05 00:39:31;;;;;;;59.03;8.13;;;;;;;;;;5071011;28;20037;-46
2023/09/05 00:41:58;;;;;;;68.68;8.27;;;;;;;;;;5053144;28;20126;-36
2023/09/05 00:44:25;;;;;;;60.95;7.65;;;;;;;;;;5071261;28;20028;-38
2023/09/05 00:46:54;;;;;;;61.60;7.95;;;;;;;;;;5070379;28;20052;-43
2023/09/05 00:49:27;;;;;;;49.08;7.47;;;;;;;;;;5069095;28;20394;-44
2023/09/05 00:51:55;;;;;;;41.08;7.28;;;;;;;;;;5070614;28;20036;-44
2023/09/05 00:54:22;;;;;;;50.95;8.07;;;;;;;;;;5070818;28;20028;-42
2023/09/05 00:56:50;;;;;;;41.72;6.32;;;;;;;;;;5070206;28;20041;-44
2023/09/05 00:59:17;;;;;;;45.20;7.03;;;;;;;;;;5067980;28;20035;-41
2023/09/05 01:01:45;;;;;;;48.70;7.07;;;;;;;;;;5070310;28;20116;-42
2023/09/05 01:04:13;;;;;;;41.42;7.03;;;;;;;;;;5070657;28;20028;-41
2023/09/05 01:07:15;;;;;;;46.03;6.90;;;;;;;;;;5070805;28;20446;-37
2023/09/05 01:09:45;;;;;;;37.10;6.30;;;;;;;;;;4980952;28;20493;-38
2023/09/05 01:12:12;;;;;;;31.67;6.45;;;;;;;;;;5041820;28;20028;-39
2023/09/05 01:14:39;;;;;;;38.28;6.78;;;;;;;;;;5051223;28;20028;-42
2023/09/05 01:17:06;;;;;;;29.17;5.68;;;;;;;;;;5069040;28;20422;-45
2023/09/05 01:19:42;;;;;;;25.13;5.65;;;;;;;;;;5069576;28;20105;-39
2023/09/05 01:22:29;;;;;;;30.23;5.07;;;;;;;;;;5069751;28;20031;-42
2023/09/05 01:24:56;;;;;;;31.75;6.28;;;;;;;;;;5068181;28;20040;-39
2023/09/05 01:27:26;;;;;;;28.40;5.75;;;;;;;;;;5069763;28;20028;-46
2023/09/05 01:29:54;;;;;;;29.45;5.63;;;;;;;;;;5069731;28;20039;-45
2023/09/05 01:32:23;;;;;;;43.75;5.72;;;;;;;;;;5070166;28;20040;-46
2023/09/05 01:34:50;;;;;;;25.75;5.15;;;;;;;;;;5069820;28;20401;-45
2023/09/05 01:37:17;;;;;;;26.75;5.68;;;;;;;;;;5069988;28;20028;-45
2023/09/05 01:39:44;;;;;;;29.20;5.20;;;;;;;;;;5070061;28;20086;-45
2023/09/05 01:42:11;;;;;;;28.23;5.25;;;;;;;;;;5070216;28;20577;-44
2023/09/05 01:44:38;;;;;;;30.58;5.45;;;;;;;;;;5052536;28;20056;-45
2023/09/05 01:47:06;;;;;;;23.27;5.20;;;;;;;;;;5070267;28;20048;-45
2023/09/05 01:49:33;;;;;;;24.75;6.20;;;;;;;;;;5070408;28;20108;-45
2023/09/05 01:52:00;;;;;;;21.85;4.18;;;;;;;;;;5070647;28;20119;-45
2023/09/05 01:54:28;;;;;;;25.58;4.68;;;;;;;;;;5067795;28;20086;-45
2023/09/05 01:56:55;;;;;;;20.13;4.57;;;;;;;;;;5070491;28;20037;-45
2023/09/05 01:59:22;;;;;;;20.77;4.43;;;;;;;;;;5070278;28;20032;-46
2023/09/05 02:01:49;;;;;;;20.58;5.10;;;;;;;;;;5070389;28;20036;-46
2023/09/05 02:04:16;;;;;;;22.00;4.35;;;;;;;;;;5070567;28;20452;-45
2023/09/05 02:06:43;;;;;;;17.27;4.13;;;;;;;;;;5070839;28;20033;-45
2023/09/05 02:09:10;;;;;;;18.67;4.57;;;;;;;;;;5073912;28;20037;-45
2023/09/05 02:11:37;;;;;;;27.33;4.80;;;;;;;;;;5074823;28;20034;-45
2023/09/05 02:14:05;;;;;;;17.02;4.10;;;;;;;;;;5074844;28;20095;-45
2023/09/05 02:16:33;;;;;;;17.98;4.28;;;;;;;;;;5074503;28;20440;-45
2023/09/05 02:19:00;;;;;;;18.50;4.68;;;;;;;;;;5074488;28;20036;-45
2023/09/05 02:21:27;;;;;;;20.20;4.35;;;;;;;;;;5074583;28;20036;-45
2023/09/05 02:23:54;;;;;;;17.95;4.40;;;;;;;;;;5074709;28;20386;-45
2023/09/05 02:26:21;;;;;;;17.75;4.95;;;;;;;;;;5074714;28;20036;-45
2023/09/05 02:28:48;;;;;;;19.50;4.20;;;;;;;;;;5074596;28;20634;-45
2023/09/05 02:31:15;;;;;;;17.67;3.60;;;;;;;;;;5074555;28;20031;-45
2023/09/05 02:33:42;;;;;;;19.52;3.53;;;;;;;;;;5056525;28;20158;-45
2023/09/05 02:36:18;;;;;;;18.63;4.28;;;;;;;;;;5074332;28;20041;-45
2023/09/05 02:38:48;;;;;;;18.17;4.10;;;;;;;;;;5074501;28;20047;-45
2023/09/05 02:41:16;;;;;;;16.02;4.15;;;;;;;;;;5074456;28;20154;-45
2023/09/05 02:43:43;;;;;;;16.48;3.70;;;;;;;;;;5074330;28;20024;-45
2023/09/05 02:46:10;;;;;;;16.02;3.47;;;;;;;;;;5073993;28;20490;-45
2023/09/05 02:48:41;;;;;;;15.68;3.42;;;;;;;;;;5074282;28;20100;-45
2023/09/05 02:51:09;;;;;;;10.32;3.13;;;;;;;;;;5056088;28;20032;-45
2023/09/05 02:53:36;;;;;;;11.88;2.72;;;;;;;;;;5074160;28;20039;-45
2023/09/05 02:56:03;;;;;;;10.35;2.80;;;;;;;;;;5074071;28;20475;-45
2023/09/05 02:58:31;;;;;;;13.52;3.08;;;;;;;;;;5074094;28;20044;-45
2023/09/05 03:01:02;;;;;;;12.63;3.15;;;;;;;;;;5074186;28;20043;-45
2023/09/05 03:03:29;;;;;;;7.70;2.35;;;;;;;;;;5055926;28;20028;-47
2023/09/05 03:05:56;;;;;;;10.40;2.75;;;;;;;;;;5073856;28;20099;-45
2023/09/05 03:08:24;;;;;;;11.07;2.60;;;;;;;;;;5073970;28;20490;-44
2023/09/05 03:10:52;;;;;;;11.13;2.80;;;;;;;;;;5073846;28;20035;-45
2023/09/05 03:13:19;;;;;;;14.05;3.10;;;;;;;;;;5073931;28;20500;-45
2023/09/05 03:15:52;;;;;;;10.00;2.63;;;;;;;;;;5073533;28;20478;-45
2023/09/05 03:18:19;;;;;;;14.50;3.25;;;;;;;;;;5073616;28;20120;-45
2023/09/05 03:20:46;;;;;;;11.85;3.00;;;;;;;;;;5072969;28;20029;-45
2023/09/05 03:23:14;;;;;;;10.15;3.05;;;;;;;;;;5073622;28;20036;-45
2023/09/05 03:25:41;;;;;;;11.25;2.30;;;;;;;;;;5073384;28;20439;-45
2023/09/05 03:28:12;;;;;;;7.38;2.20;;;;;;;;;;5073706;28;20043;-45
2023/09/05 03:30:39;;;;;;;10.73;2.85;;;;;;;;;;5073462;28;20025;-45
2023/09/05 03:33:06;;;;;;;7.57;2.55;;;;;;;;;;5073496;28;20027;-45
2023/09/05 03:35:34;;;;;;;7.82;2.42;;;;;;;;;;5073358;28;20040;-45
2023/09/05 03:38:02;;;;;;;9.07;2.45;;;;;;;;;;5073467;28;20032;-45
2023/09/05 03:40:30;;;;;;;6.72;2.17;;;;;;;;;;5073403;28;20017;-45
2023/09/05 03:42:57;;;;;;;7.82;2.63;;;;;;;;;;5073268;28;20069;-45
2023/09/05 03:45:24;;;;;;;7.05;2.22;;;;;;;;;;5073208;28;20111;-45
2023/09/05 03:47:51;;;;;;;8.55;2.00;;;;;;;;;;5072855;28;20102;-45
2023/09/05 03:50:18;;;;;;;6.80;2.33;;;;;;;;;;5073242;28;20063;-45
2023/09/05 03:52:45;;;;;;;6.05;2.17;;;;;;;;;;5073127;28;20029;-45
2023/09/05 03:55:13;;;;;;;6.72;2.05;;;;;;;;;;5072885;28;20494;-46
2023/09/05 03:57:40;;;;;;;6.70;2.13;;;;;;;;;;5073061;28;20024;-45
2023/09/05 04:00:07;;;;;;;6.35;2.15;;;;;;;;;;5073066;28;20025;-45
2023/09/05 04:02:34;;;;;;;5.70;1.70;;;;;;;;;;5073007;28;20032;-45
2023/09/05 04:05:01;;;;;;;6.00;1.88;;;;;;;;;;5072807;28;20381;-45
2023/09/05 04:07:28;;;;;;;7.38;2.05;;;;;;;;;;5072862;28;20020;-45
2023/09/05 04:09:55;;;;;;;6.60;1.77;;;;;;;;;;5072870;28;20078;-45
2023/09/05 04:12:22;;;;;;;7.15;1.63;;;;;;;;;;5072684;28;20028;-45
2023/09/05 04:14:49;;;;;;;6.53;2.13;;;;;;;;;;5072536;28;20037;-45
2023/09/05 04:17:16;;;;;;;7.63;2.15;;;;;;;;;;5072562;28;20036;-45
2023/09/05 04:19:43;;;;;;;6.78;2.05;;;;;;;;;;5072672;28;20033;-45
2023/09/05 04:22:10;;;;;;;5.63;1.92;;;;;;;;;;5072350;28;20441;-45
2023/09/05 04:24:37;;;;;;;5.68;1.95;;;;;;;;;;5072447;28;20021;-45
2023/09/05 04:27:04;;;;;;;3.92;1.50;;;;;;;;;;5072357;28;20027;-45
2023/09/05 04:29:31;;;;;;;5.57;1.83;;;;;;;;;;5072311;28;20025;-45
2023/09/05 04:31:58;;;;;;;5.80;2.08;;;;;;;;;;5071334;28;20389;-45
2023/09/05 04:34:25;;;;;;;6.55;1.60;;;;;;;;;;5072232;28;20055;-45
2023/09/05 04:36:52;;;;;;;5.63;1.80;;;;;;;;;;5072170;28;20051;-45
2023/09/05 04:39:19;;;;;;;6.22;1.50;;;;;;;;;;5054069;28;20029;-45
2023/09/05 04:41:46;;;;;;;5.68;1.75;;;;;;;;;;5072116;28;20035;-45
2023/09/05 04:44:13;;;;;;;6.68;1.85;;;;;;;;;;5072051;28;20064;-45
2023/09/05 04:46:45;;;;;;;6.22;1.90;;;;;;;;;;5071879;28;20499;-45
2023/09/05 04:49:12;;;;;;;7.55;1.75;;;;;;;;;;5072007;28;20040;-45
2023/09/05 04:51:39;;;;;;;6.68;1.60;;;;;;;;;;5072084;28;20029;-45
2023/09/05 04:54:07;;;;;;;7.95;2.17;;;;;;;;;;5071909;28;20478;-45
2023/09/05 04:56:34;;;;;;;7.60;2.28;;;;;;;;;;5071730;28;20085;-45
2023/09/05 04:59:01;;;;;;;6.28;1.73;;;;;;;;;;5071930;28;20107;-45
2023/09/05 05:01:28;;;;;;;5.82;1.60;;;;;;;;;;5071866;28;20166;-45
2023/09/05 05:03:55;;;;;;;6.15;1.45;;;;;;;;;;5071810;28;20083;-45
2023/09/05 05:06:22;;;;;;;4.28;1.70;;;;;;;;;;5071739;28;20383;-45
2023/09/05 05:08:49;;;;;;;5.18;1.60;;;;;;;;;;5071840;28;20033;-45
2023/09/05 05:11:16;;;;;;;5.18;1.80;;;;;;;;;;5071865;28;20052;-45
2023/09/05 05:13:43;;;;;;;6.18;1.60;;;;;;;;;;5071749;28;20035;-45
2023/09/05 05:16:10;;;;;;;5.40;1.83;;;;;;;;;;5071796;28;20397;-45
2023/09/05 05:18:37;;;;;;;4.85;1.30;;;;;;;;;;5071466;28;20452;-45
2023/09/05 05:21:04;;;;;;;5.15;1.40;;;;;;;;;;5071674;28;20020;-45
2023/09/05 05:23:31;;;;;;;4.22;1.40;;;;;;;;;;5071557;28;20036;-45
2023/09/05 05:25:59;;;;;;;4.38;1.45;;;;;;;;;;5071535;28;20043;-45
2023/09/05 05:28:26;;;;;;;4.25;1.63;;;;;;;;;;5071475;28;20043;-45
2023/09/05 05:30:53;;;;;;;3.65;1.38;;;;;;;;;;5071539;28;20057;-46
2023/09/05 05:33:20;;;;;;;3.53;1.40;;;;;;;;;;5071555;28;20024;-45
2023/09/05 05:35:53;;;;;;;4.75;1.48;;;;;;;;;;5071473;28;20032;-45
2023/09/05 05:38:20;;;;;;;2.45;1.08;;;;;;;;;;5071654;28;20037;-45
2023/09/05 05:40:48;;;;;;;4.32;1.65;;;;;;;;;;5071493;28;20032;-45
2023/09/05 05:43:15;;;;;;;2.83;1.25;;;;;;;;;;5072968;28;20028;-45
2023/09/05 05:45:42;;;;;;;4.90;1.17;;;;;;;;;;5075016;28;20420;-46
2023/09/05 05:48:10;;;;;;;7.25;1.50;;;;;;;;;;5075474;28;20552;-45
2023/09/05 05:50:37;;;;;;;4.90;1.52;;;;;;;;;;5075377;28;20037;-45
2023/09/05 05:53:04;;;;;;;2.67;1.30;;;;;;;;;;5075513;28;20603;-44
2023/09/05 05:55:31;;;;;;;4.15;1.52;;;;;;;;;;5075262;28;20103;-45
2023/09/05 05:58:00;;;;;;;3.80;1.38;;;;;;;;;;5075377;28;20028;-45
2023/09/05 06:00:29;;;;;;;4.55;1.23;;;;;;;;;;5075228;28;20111;-45
2023/09/05 06:02:57;;;;;;;6.28;1.58;;;;;;;;;;5072590;28;20040;-45
2023/09/05 06:05:24;;;;;;;4.38;1.25;;;;;;;;;;5075057;28;20041;-45
2023/09/05 06:07:51;;;;;;;3.75;1.10;;;;;;;;;;5075226;28;20028;-45
2023/09/05 06:10:18;;;;;;;3.85;1.20;;;;;;;;;;5075142;28;20497;-45
2023/09/05 06:12:45;;;;;;;2.90;1.10;;;;;;;;;;5075060;28;20028;-45
2023/09/05 06:15:13;;;;;;;3.72;1.30;;;;;;;;;;5074745;28;20032;-45
2023/09/05 06:17:41;;;;;;;2.45;0.93;;;;;;;;;;5074779;28;20025;-45
2023/09/05 06:20:09;;;;;;;4.40;1.20;;;;;;;;;;5074783;28;20036;-45
2023/09/05 06:22:36;;;;;;;2.92;1.05;;;;;;;;;;5075014;28;20025;-45
2023/09/05 06:25:05;;;;;;;4.00;1.30;;;;;;;;;;5074744;28;20548;-45
2023/09/05 06:27:32;;;;;;;2.47;1.00;;;;;;;;;;5074620;28;20544;-45
2023/09/05 06:29:59;;;;;;;2.28;0.98;;;;;;;;;;5074709;28;20166;-45
2023/09/05 06:32:26;;;;;;;2.60;1.08;;;;;;;;;;5074729;28;20024;-45
2023/09/05 06:34:53;;;;;;;2.22;0.90;;;;;;;;;;5074477;28;20047;-45
2023/09/05 06:37:28;;;;;;;2.95;1.33;;;;;;;;;;5074291;28;20573;-45
2023/09/05 06:39:56;;;;;;;4.55;1.17;;;;;;;;;;5074303;28;20115;-45
2023/09/05 06:42:23;;;;;;;3.58;0.90;;;;;;;;;;5074401;28;20023;-45
2023/09/05 06:44:50;;;;;;;2.30;0.95;;;;;;;;;;5074539;28;20105;-45
2023/09/05 06:47:17;;;;;;;2.00;1.00;;;;;;;;;;5074238;28;20040;-45
2023/09/05 06:49:44;;;;;;;2.88;1.20;;;;;;;;;;5074435;28;20094;-45
2023/09/05 06:52:11;;;;;;;2.17;0.73;;;;;;;;;;5074216;28;20529;-45
2023/09/05 06:54:38;;;;;;;2.92;1.45;;;;;;;;;;5072960;28;20478;-45
2023/09/05 06:57:05;;;;;;;3.50;0.98;;;;;;;;;;5074258;28;20035;-45
2023/09/05 06:59:32;;;;;;;1.92;1.00;;;;;;;;;;5074171;28;20051;-45
2023/09/05 07:01:59;;;;;;;2.38;0.90;;;;;;;;;;5074223;28;20028;-45
2023/09/05 07:04:27;;;;;;;3.20;1.08;;;;;;;;;;5074055;28;20024;-45
2023/09/05 07:06:54;;;;;;;3.78;0.93;;;;;;;;;;5074043;28;20108;-45
2023/09/05 07:09:21;;;;;;;2.47;0.90;;;;;;;;;;5074035;28;20382;-45
2023/09/05 07:11:48;;;;;;;2.38;1.05;;;;;;;;;;5073954;28;20075;-45
2023/09/05 07:14:15;;;;;;;3.20;0.80;;;;;;;;;;5073935;28;20493;-45
2023/09/05 07:16:42;;;;;;;2.08;0.90;;;;;;;;;;5073740;28;20043;-45
2023/09/05 07:19:09;;;;;;;2.53;0.73;;;;;;;;;;5073841;28;20100;-45
2023/09/05 07:21:40;;;;;;;2.95;1.20;;;;;;;;;;5073817;28;20039;-45
2023/09/05 07:24:07;;;;;;;1.10;0.60;;;;;;;;;;5073693;28;20033;-45
2023/09/05 07:26:34;;;;;;;3.67;1.30;;;;;;;;;;5073701;28;20455;-45
2023/09/05 07:29:02;;;;;;;2.92;1.10;;;;;;;;;;5073614;28;20033;-45
2023/09/05 07:31:31;;;;;;;2.00;1.13;;;;;;;;;;5073434;28;20111;-45
2023/09/05 07:33:58;;;;;;;2.00;0.73;;;;;;;;;;5073314;28;20432;-45
2023/09/05 07:36:27;;;;;;;3.92;0.88;;;;;;;;;;5073512;28;20445;-45
2023/09/05 07:38:54;;;;;;;1.75;0.77;;;;;;;;;;5073351;28;20046;-45
2023/09/05 07:41:21;;;;;;;2.17;0.80;;;;;;;;;;5073330;28;20068;-45
2023/09/05 07:43:48;;;;;;;2.00;0.80;;;;;;;;;;5073351;28;20028;-45
2023/09/05 07:46:15;;;;;;;1.50;0.80;;;;;;;;;;5073169;28;20098;-45
2023/09/05 07:48:43;;;;;;;2.00;0.80;;;;;;;;;;5073457;28;20650;-45
2023/09/05 07:51:11;;;;;;;2.08;0.70;;;;;;;;;;5073247;28;20029;-45
2023/09/05 07:53:38;;;;;;;1.40;0.80;;;;;;;;;;5072886;28;20033;-45
2023/09/05 07:56:07;;;;;;;1.88;1.00;;;;;;;;;;5073082;28;20085;-45
2023/09/05 07:58:34;;;;;;;1.85;0.80;;;;;;;;;;5072781;28;20058;-45
2023/09/05 08:01:00;;;;;;;1.90;0.60;;;;;;;;;;5072841;28;20097;-45
2023/09/05 08:03:28;;;;;;;2.38;0.82;;;;;;;;;;5072994;28;20394;-45
2023/09/05 08:05:55;;;;;;;2.20;1.02;;;;;;;;;;5072150;28;20039;-45
2023/09/05 08:08:22;;;;;;;1.83;0.88;;;;;;;;;;5072868;28;20111;-45
2023/09/05 08:10:49;;;;;;;1.10;0.50;;;;;;;;;;5072812;28;20097;-45
2023/09/05 08:13:16;;;;;;;3.80;0.60;;;;;;;;;;5072813;28;20017;-45
2023/09/05 08:15:44;;;;;;;1.75;0.68;;;;;;;;;;5072585;28;20032;-45
2023/09/05 08:18:14;;;;;;;1.58;0.70;;;;;;;;;;5072630;28;20031;-45
2023/09/05 08:20:45;;;;;;;1.58;0.60;;;;;;;;;;5072553;28;20016;-45
2023/09/05 08:23:12;;;;;;;1.40;0.70;;;;;;;;;;5072589;28;20029;-37
2023/09/05 08:25:39;;;;;;;1.33;0.70;;;;;;;;;;5072383;28;20084;-38
2023/09/05 08:28:06;;;;;;;2.00;0.60;;;;;;;;;;5054426;28;20461;-38
2023/09/05 08:30:33;;;;;;;1.73;0.75;;;;;;;;;;5072452;28;20029;-37
2023/09/05 08:33:01;;;;;;;1.90;0.77;;;;;;;;;;5072399;28;20028;-38
2023/09/05 08:35:31;;;;;;;1.42;0.70;;;;;;;;;;5072080;28;20098;-38
2023/09/05 08:38:02;;;;;;;1.13;0.52;;;;;;;;;;5072256;28;20036;-37
2023/09/05 08:40:29;;;;;;;2.53;0.80;;;;;;;;;;5072184;28;20520;-37
2023/09/05 08:42:56;;;;;;;1.13;0.50;;;;;;;;;;5072286;28;20450;-37
2023/09/05 08:45:24;;;;;;;2.05;0.50;;;;;;;;;;5072170;28;20063;-37
2023/09/05 08:47:52;;;;;;;1.40;0.60;;;;;;;;;;5072012;28;20045;-38
2023/09/05 08:50:19;;;;;;;1.45;0.60;;;;;;;;;;5072168;28;20460;-38
2023/09/05 08:52:47;;;;;;;1.75;0.88;;;;;;;;;;5072151;28;20028;-37
2023/09/05 08:55:14;;;;;;;1.50;0.60;;;;;;;;;;5071701;28;20098;-37
2023/09/05 08:57:47;;;;;;;2.10;0.63;;;;;;;;;;5072039;28;20032;-38
2023/09/05 09:00:18;;;;;;;1.88;0.50;;;;;;;;;;5071737;28;20105;-38
2023/09/05 09:02:45;;;;;;;0.98;0.65;;;;;;;;;;5071704;28;20123;-37
2023/09/05 09:05:12;;;;;;;3.13;0.70;;;;;;;;;;5071777;28;20059;-38
2023/09/05 09:07:39;;;;;;;0.80;0.50;;;;;;;;;;5071625;28;20107;-37
2023/09/05 09:10:20;;;;;;;1.40;0.68;;;;;;;;;;5071892;28;20024;-38
2023/09/05 09:12:51;;;;;;;0.70;0.32;;;;;;;;;;5071114;28;20090;-37
2023/09/05 09:15:18;;;;;;;1.25;0.60;;;;;;;;;;5071418;28;20048;-38
2023/09/05 09:17:49;;;;;;;1.13;0.50;;;;;;;;;;5071184;28;20024;-38
2023/09/05 09:20:18;;;;;;;3.30;0.65;;;;;;;;;;5071523;28;20418;-38
2023/09/05 09:22:47;;;;;;;2.58;0.57;;;;;;;;;;5067324;28;20459;-38
2023/09/05 09:25:20;;;;;;;1.65;0.63;;;;;;;;;;5051164;28;20482;-38
2023/09/05 09:27:54;;;;;;;1.08;0.60;;;;;;;;;;5050800;28;20040;-38
2023/09/05 09:30:24;;;;;;;1.48;0.70;;;;;;;;;;5050967;28;20116;-39
2023/09/05 09:32:54;;;;;;;0.90;0.50;;;;;;;;;;5051429;28;20095;-38
2023/09/05 09:35:22;;;;;;;3.50;0.60;;;;;;;;;;5050396;28;20406;-39
2023/09/05 09:37:50;;;;;;;3.10;0.60;;;;;;;;;;5050928;28;20127;-38
2023/09/05 09:40:17;;;;;;;3.35;0.70;;;;;;;;;;5050698;28;20127;-38
2023/09/05 09:42:48;;;;;;;7.13;0.50;;;;;;;;;;5050357;28;20095;-38
2023/09/05 09:45:18;;;;;;;3.63;0.95;;;;;;;;;;5048959;28;20029;-38
2023/09/05 09:47:49;;;;;;;2.75;0.57;;;;;;;;;;5067434;28;20051;-37
2023/09/05 09:50:17;;;;;;;5.60;0.60;;;;;;;;;;5071424;28;20486;-39
2023/09/05 09:52:46;;;;;;;4.47;0.85;;;;;;;;;;5071332;28;20032;-38
2023/09/05 09:55:17;;;;;;;5.15;0.55;;;;;;;;;;5071124;28;20424;-38
2023/09/05 09:57:47;;;;;;;4.18;0.90;;;;;;;;;;5071611;28;20441;-37
2023/09/05 10:00:18;;;;;;;1.50;0.77;;;;;;;;;;5071027;28;20041;-37
2023/09/05 10:02:47;;;;;;;2.87;0.70;;;;;;;;;;5070574;28;20051;-37
2023/09/05 10:05:15;;;;;;;1.27;0.50;;;;;;;;;;5071223;28;20099;-38
2023/09/05 10:07:45;;;;;;;3.28;0.70;;;;;;;;;;5071039;28;20071;-37
2023/09/05 10:10:15;;;;;;;2.95;0.60;;;;;;;;;;5071023;28;20044;-37
2023/09/05 10:12:46;;;;;;;3.15;0.90;;;;;;;;;;5070983;28;20440;-38
2023/09/05 10:15:18;;;;;;;3.45;0.95;;;;;;;;;;5070553;28;20033;-37
2023/09/05 10:17:45;;;;;;;3.10;0.80;;;;;;;;;;5070993;28;20040;-44
2023/09/05 10:20:14;;;;;;;4.07;0.75;;;;;;;;;;5071075;28;20036;-44
2023/09/05 10:22:44;;;;;;;4.47;0.75;;;;;;;;;;5070479;28;20517;-44
2023/09/05 10:25:13;;;;;;;2.38;0.90;;;;;;;;;;5070846;28;20040;-44
2023/09/05 10:27:40;;;;;;;6.50;0.90;;;;;;;;;;5053025;28;20371;-44
2023/09/05 10:30:10;;;;;;;8.32;1.20;;;;;;;;;;5073721;28;20025;-44
2023/09/05 10:32:38;;;;;;;4.53;1.00;;;;;;;;;;5074777;28;20033;-44
2023/09/05 10:35:06;;;;;;;3.97;0.80;;;;;;;;;;5074544;28;20037;-43
2023/09/05 10:37:53;;;;;;;5.95;1.17;;;;;;;;;;5074633;28;20029;-44
2023/09/05 10:40:32;;;;;;;5.05;0.98;;;;;;;;;;5073662;28;20503;-45
2023/09/05 10:42:59;;;;;;;8.70;1.05;;;;;;;;;;5073983;28;20128;-43
2023/09/05 10:45:26;;;;;;;3.95;0.73;;;;;;;;;;5073593;28;20078;-43
2023/09/05 10:47:54;;;;;;;3.10;1.02;;;;;;;;;;5074311;28;20045;-43
2023/09/05 10:50:22;;;;;;;4.45;1.08;;;;;;;;;;5074325;28;20016;-43
2023/09/05 10:53:12;;;;;;;3.75;1.05;;;;;;;;;;5074224;28;20043;-42
2023/09/05 10:55:44;;;;;;;4.28;1.02;;;;;;;;;;5074195;28;20037;-42
2023/09/05 10:58:29;;;;;;;2.58;0.90;;;;;;;;;;5074113;28;20032;-44
2023/09/05 11:01:00;;;;;;;3.83;0.90;;;;;;;;;;5074222;28;20367;-43
2023/09/05 11:03:38;;;;;;;4.80;0.73;;;;;;;;;;5074285;28;20085;-44
2023/09/05 11:06:16;;;;;;;7.95;0.98;;;;;;;;;;5073894;28;20509;-43
2023/09/05 11:08:45;;;;;;;3.38;0.90;;;;;;;;;;5055969;28;20028;-43
2023/09/05 11:11:23;;;;;;;20.63;1.90;;;;;;;;;;5055707;28;20041;-44
2023/09/05 11:13:51;;;;;;;10.98;1.20;;;;;;;;;;5073007;28;20028;-45
2023/09/05 11:16:18;;;;;;;12.70;1.10;;;;;;;;;;5072780;28;20067;-44
2023/09/05 11:18:47;;;;;;;278.33;13.90;;;;;;;;;;5073215;28;20496;-31
2023/09/05 11:21:23;;;;;;;136.80;5.40;;;;;;;;;;5070285;28;20039;-42
2023/09/05 11:23:54;;;;;;;67.93;4.75;;;;;;;;;;5071096;28;20119;-36
2023/09/05 11:26:22;;;;;;;970.42;91.07;;;;;;;;;;5073520;28;20079;-37
2023/09/05 11:28:51;;;;;;;765.15;78.80;;;;;;;;;;5073473;28;20111;-43
2023/09/05 11:31:19;;;;;;;436.60;44.88;;;;;;;;;;5073445;28;20043;-43
2023/09/05 11:33:46;;;;;;;363.88;30.23;;;;;;;;;;5073297;28;20043;-43
2023/09/05 11:36:13;;;;;;;334.05;29.73;;;;;;;;;;5073407;28;20054;-43
2023/09/05 11:38:47;;;;;;;296.95;25.02;;;;;;;;;;5073399;28;20035;-43
2023/09/05 11:41:14;;;;;;;297.40;24.38;;;;;;;;;;5072802;28;20747;-43
2023/09/05 11:43:56;;;;;;;256.38;23.83;;;;;;;;;;5073238;28;20387;-43
2023/09/05 11:46:23;;;;;;;257.95;22.33;;;;;;;;;;5072823;28;20047;-43
2023/09/05 11:48:51;;;;;;;254.13;23.90;;;;;;;;;;5073093;28;20390;-43
2023/09/05 11:51:19;;;;;;;299.98;28.33;;;;;;;;;;5073135;28;20182;-45
2023/09/05 11:53:46;;;;;;;293.55;29.00;;;;;;;;;;5072850;28;20033;-45
2023/09/05 11:56:14;;;;;;;230.13;24.58;;;;;;;;;;5072939;28;20036;-45
2023/09/05 11:58:41;;;;;;;189.43;21.83;;;;;;;;;;5072985;28;20467;-45
2023/09/05 12:01:10;;;;;;;196.32;20.40;;;;;;;;;;5072956;28;20078;-45
2023/09/05 12:03:37;;;;;;;221.57;22.75;;;;;;;;;;5072670;28;20032;-45
2023/09/05 12:06:04;;;;;;;229.05;24.85;;;;;;;;;;5072928;28;20052;-45
2023/09/05 12:08:31;;;;;;;221.32;24.98;;;;;;;;;;5072851;28;20359;-45
2023/09/05 12:10:58;;;;;;;254.48;29.67;;;;;;;;;;5072679;28;20056;-45
2023/09/05 12:13:40;;;;;;;267.52;31.60;;;;;;;;;;5072664;28;20107;-45
2023/09/05 12:16:10;;;;;;;261.87;30.20;;;;;;;;;;5072608;28;20043;-46
2023/09/05 12:18:38;;;;;;;254.15;27.75;;;;;;;;;;5072130;28;20270;-45
2023/09/05 12:21:05;;;;;;;243.88;28.33;;;;;;;;;;5071919;28;20111;-45
2023/09/05 12:23:32;;;;;;;232.82;25.48;;;;;;;;;;5071071;28;20040;-45
2023/09/05 12:25:59;;;;;;;223.07;26.92;;;;;;;;;;5071726;28;20032;-45
2023/09/05 12:28:27;;;;;;;210.55;23.10;;;;;;;;;;5071805;28;20555;-45
2023/09/05 12:31:15;;;;;;;152.75;21.20;;;;;;;;;;5071710;28;20032;-45
2023/09/05 12:33:43;;;;;;;196.20;23.38;;;;;;;;;;5068469;28;20051;-46
2023/09/05 12:36:10;;;;;;;169.85;21.85;;;;;;;;;;5057978;28;20036;-46
2023/09/05 12:38:37;;;;;;;157.48;18.92;;;;;;;;;;5071854;28;20060;-46
2023/09/05 12:41:04;;;;;;;145.75;18.90;;;;;;;;;;5071564;28;20024;-46
2023/09/05 12:43:31;;;;;;;169.52;19.80;;;;;;;;;;5071852;28;20020;-46
2023/09/05 12:45:58;;;;;;;139.10;15.82;;;;;;;;;;5071563;28;20024;-46
2023/09/05 12:48:25;;;;;;;127.32;17.48;;;;;;;;;;5071579;28;20032;-46
2023/09/05 12:50:53;;;;;;;147.88;14.77;;;;;;;;;;5071529;28;20035;-46
2023/09/05 12:53:20;;;;;;;118.70;14.70;;;;;;;;;;5070708;28;20043;-46
2023/09/05 12:55:48;;;;;;;92.68;12.68;;;;;;;;;;5071384;28;20501;-45
2023/09/05 12:58:15;;;;;;;111.25;13.63;;;;;;;;;;5071432;28;20051;-46
2023/09/05 13:00:42;;;;;;;87.10;12.40;;;;;;;;;;5070990;28;20044;-46
2023/09/05 13:03:10;;;;;;;79.82;10.80;;;;;;;;;;5071680;28;20455;-46
2023/09/05 13:05:37;;;;;;;77.78;11.88;;;;;;;;;;5071094;28;20043;-46
2023/09/05 13:08:05;;;;;;;84.57;12.18;;;;;;;;;;5070810;28;20021;-46
2023/09/05 13:10:31;;;;;;;93.30;10.98;;;;;;;;;;5070550;28;20425;-46
2023/09/05 13:12:59;;;;;;;83.07;10.50;;;;;;;;;;5070941;28;20028;-46
2023/09/05 13:15:26;;;;;;;66.72;8.85;;;;;;;;;;5071025;28;20631;-46
2023/09/05 13:17:53;;;;;;;75.15;9.82;;;;;;;;;;5070586;28;20040;-46
2023/09/05 13:20:20;;;;;;;69.68;10.15;;;;;;;;;;5068405;28;20031;-46
2023/09/05 13:22:51;;;;;;;58.83;8.30;;;;;;;;;;5070966;28;20028;-45
2023/09/05 13:25:18;;;;;;;59.42;7.28;;;;;;;;;;5068172;28;20035;-46
2023/09/05 13:27:45;;;;;;;65.35;7.10;;;;;;;;;;5070791;28;20051;-46
2023/09/05 13:30:13;;;;;;;54.85;7.57;;;;;;;;;;5070814;28;20021;-46
2023/09/05 13:32:40;;;;;;;47.83;7.18;;;;;;;;;;5049718;28;20375;-46
2023/09/05 13:35:10;;;;;;;83.75;7.25;;;;;;;;;;5071357;28;20024;-46
2023/09/05 13:37:37;;;;;;;77.13;6.88;;;;;;;;;;5071397;28;20108;-46
2023/09/05 13:40:05;;;;;;;52.13;5.97;;;;;;;;;;5071385;28;20032;-46
2023/09/05 13:42:32;;;;;;;72.22;6.45;;;;;;;;;;5071378;28;20098;-46
2023/09/05 13:44:59;;;;;;;53.65;6.10;;;;;;;;;;5070629;28;20028;-47
2023/09/05 13:47:27;;;;;;;58.90;5.65;;;;;;;;;;5070614;28;20576;-46
2023/09/05 13:49:55;;;;;;;44.72;5.45;;;;;;;;;;5070951;28;20110;-46
2023/09/05 13:52:22;;;;;;;58.53;5.72;;;;;;;;;;5070528;28;20223;-46
2023/09/05 13:54:49;;;;;;;49.33;5.45;;;;;;;;;;5070502;28;20043;-46
2023/09/05 13:57:16;;;;;;;62.08;6.05;;;;;;;;;;5070459;28;20028;-46
2023/09/05 13:59:44;;;;;;;44.38;5.43;;;;;;;;;;5068013;28;20024;-46
2023/09/05 14:02:11;;;;;;;35.33;4.25;;;;;;;;;;5070573;28;20036;-46
2023/09/05 14:04:38;;;;;;;33.33;4.43;;;;;;;;;;5072563;28;20051;-46
2023/09/05 14:07:05;;;;;;;35.55;4.68;;;;;;;;;;5073889;28;20028;-47
2023/09/05 14:09:34;;;;;;;39.33;4.75;;;;;;;;;;5074423;28;20548;-46
2023/09/05 14:12:01;;;;;;;49.45;5.47;;;;;;;;;;5071657;28;20024;-47
2023/09/05 14:14:28;;;;;;;93.80;7.88;;;;;;;;;;5074264;28;20479;-47
2023/09/05 14:16:55;;;;;;;75.70;7.47;;;;;;;;;;5074346;28;20029;-47
2023/09/05 14:19:22;;;;;;;75.45;6.95;;;;;;;;;;5071740;28;20082;-47
2023/09/05 14:21:49;;;;;;;66.47;8.00;;;;;;;;;;5074168;28;20439;-46
2023/09/05 14:24:16;;;;;;;66.03;7.43;;;;;;;;;;5074133;28;20032;-47
2023/09/05 14:26:44;;;;;;;71.47;6.28;;;;;;;;;;5074132;28;20032;-47
2023/09/05 14:29:12;;;;;;;51.42;5.43;;;;;;;;;;5074108;28;20041;-47
2023/09/05 14:31:40;;;;;;;55.15;6.03;;;;;;;;;;5073934;28;20068;-47
2023/09/05 14:34:07;;;;;;;52.47;5.78;;;;;;;;;;5073842;28;20121;-47
2023/09/05 14:36:34;;;;;;;59.00;6.45;;;;;;;;;;5073936;28;20362;-47
2023/09/05 14:39:01;;;;;;;55.08;5.43;;;;;;;;;;5071250;28;20464;-47
2023/09/05 14:41:31;;;;;;;63.70;5.80;;;;;;;;;;5073994;28;20582;-46